createdAt,value
2023-04-05T00:01:53.657Z,6.50
2023-04-05T00:04:50.282Z,7.13
2023-04-05T00:07:36.086Z,6.37
2023-04-05T00:10:21.676Z,5.50
2023-04-05T00:13:07.630Z,5.63
2023-04-05T00:15:53.108Z,8.53
2023-04-05T00:18:38.762Z,6.50
2023-04-05T00:21:24.988Z,6.50
2023-04-05T00:24:15.428Z,7.13
2023-04-05T00:27:01.356Z,6.80
2023-04-05T00:29:46.861Z,7.53
2023-04-05T00:32:32.861Z,8.70
2023-04-05T00:35:18.512Z,9.37
2023-04-05T00:38:03.870Z,6.60
2023-04-05T00:40:49.491Z,7.77
2023-04-05T00:43:35.219Z,7.23
2023-04-05T00:46:21.052Z,7.97
2023-04-05T00:49:07.570Z,7.40
2023-04-05T00:51:53.600Z,6.83
2023-04-05T00:54:39.280Z,7.00
2023-04-05T00:57:26.451Z,6.60
2023-04-05T01:00:12.489Z,6.57
2023-04-05T01:03:03.745Z,7.27
2023-04-05T01:06:04.307Z,9.77
2023-04-05T01:09:00.129Z,8.70
2023-04-05T01:11:47.456Z,7.50
2023-04-05T01:14:44.399Z,7.93
2023-04-05T01:17:36.982Z,7.17
2023-04-05T01:20:22.904Z,6.70
2023-04-05T01:23:32.154Z,7.77
2023-04-05T01:26:58.925Z,7.63
2023-04-05T01:30:08.421Z,8.30
2023-04-05T01:32:59.813Z,6.90
2023-04-05T01:35:56.113Z,8.10
2023-04-05T01:38:46.375Z,7.83
2023-04-05T01:41:32.662Z,7.73
2023-04-05T01:44:17.954Z,8.13
2023-04-05T01:47:03.387Z,6.83
2023-04-05T01:49:48.975Z,6.90
2023-04-05T01:52:34.585Z,8.93
2023-04-05T01:55:19.860Z,6.10
2023-04-05T01:58:05.597Z,8.80
2023-04-05T02:00:55.046Z,6.73
2023-04-05T02:03:41.095Z,7.47
2023-04-05T02:06:26.741Z,8.03
2023-04-05T02:09:12.886Z,7.53
2023-04-05T02:11:58.256Z,7.17
2023-04-05T02:14:43.695Z,6.63
2023-04-05T02:17:34.356Z,7.67
2023-04-05T02:20:20.003Z,7.83
2023-04-05T02:23:05.564Z,7.43
2023-04-05T02:25:51.117Z,6.90
2023-04-05T02:28:36.657Z,11.00
2023-04-05T02:31:22.441Z,6.63
2023-04-05T02:34:09.411Z,7.77
2023-04-05T02:36:55.430Z,8.33
2023-04-05T02:39:41.065Z,8.07
2023-04-05T02:42:26.727Z,7.53
2023-04-05T02:45:12.288Z,8.20
2023-04-05T02:47:57.978Z,10.23
2023-04-05T02:50:49.005Z,7.00
2023-04-05T02:53:35.458Z,7.07
2023-04-05T02:56:22.258Z,6.40
2023-04-05T02:59:08.275Z,7.60
2023-04-05T03:01:53.773Z,7.93
2023-04-05T03:04:41.000Z,7.30
2023-04-05T03:07:26.656Z,6.23
2023-04-05T03:10:13.850Z,8.17
2023-04-05T03:12:59.465Z,6.43
2023-04-05T03:15:45.042Z,10.87
2023-04-05T03:18:30.463Z,6.90
2023-04-05T03:21:18.627Z,7.60
2023-04-05T03:24:04.288Z,9.00
2023-04-05T03:26:49.770Z,9.43
2023-04-05T03:29:35.710Z,8.53
2023-04-05T03:32:21.275Z,7.73
2023-04-05T03:35:06.899Z,6.77
2023-04-05T03:37:52.124Z,6.77
2023-04-05T03:40:38.136Z,5.87
2023-04-05T03:43:23.725Z,11.47
2023-04-05T03:46:09.026Z,9.73
2023-04-05T03:48:54.627Z,9.87
2023-04-05T03:51:39.900Z,8.93
2023-04-05T03:54:25.592Z,11.97
2023-04-05T03:57:11.381Z,11.80
2023-04-05T03:59:57.048Z,9.80
2023-04-05T04:02:47.665Z,10.73
2023-04-05T04:05:39.351Z,10.97
2023-04-05T04:08:26.499Z,11.27
2023-04-05T04:11:12.114Z,9.73
2023-04-05T04:13:57.412Z,7.77
2023-04-05T04:16:43.024Z,10.67
2023-04-05T04:19:28.486Z,8.07
2023-04-05T04:22:20.640Z,6.60
2023-04-05T04:25:10.817Z,11.47
2023-04-05T04:27:58.608Z,7.13
2023-04-05T04:30:44.201Z,9.10
2023-04-05T04:33:29.857Z,11.63
2023-04-05T04:36:18.207Z,7.97
2023-04-05T04:39:07.897Z,8.90
2023-04-05T04:41:54.971Z,10.23
2023-04-05T04:44:42.820Z,10.90
2023-04-05T04:47:29.467Z,15.43
2023-04-05T04:50:16.260Z,9.23
2023-04-05T04:53:02.409Z,8.53
2023-04-05T04:55:50.644Z,10.13
2023-04-05T04:58:36.252Z,9.87
2023-04-05T05:01:22.836Z,9.13
2023-04-05T05:04:08.248Z,8.20
2023-04-05T05:06:54.114Z,8.23
2023-04-05T05:09:39.411Z,8.50
2023-04-05T05:12:26.779Z,8.07
2023-04-05T05:15:12.719Z,8.07
2023-04-05T05:17:58.432Z,8.57
2023-04-05T05:20:43.962Z,9.67
2023-04-05T05:23:29.377Z,9.97
2023-04-05T05:26:15.195Z,9.60
2023-04-05T05:29:04.134Z,10.07
2023-04-05T05:31:50.124Z,11.60
2023-04-05T05:34:36.782Z,10.23
2023-04-05T05:37:32.489Z,9.27
2023-04-05T05:40:17.900Z,10.23
2023-04-05T05:43:03.488Z,8.20
2023-04-05T05:45:48.964Z,10.73
2023-04-05T05:48:34.655Z,11.77
2023-04-05T05:51:20.780Z,8.77
2023-04-05T05:54:06.532Z,12.37
2023-04-05T05:56:52.105Z,9.30
2023-04-05T05:59:37.664Z,7.53
2023-04-05T06:02:23.010Z,9.20
2023-04-05T06:05:09.094Z,10.63
2023-04-05T06:07:54.570Z,14.60
2023-04-05T06:10:40.310Z,7.23
2023-04-05T06:13:26.353Z,12.27
2023-04-05T06:16:12.170Z,8.60
2023-04-05T06:18:58.506Z,9.57
2023-04-05T06:21:43.961Z,8.83
2023-04-05T06:24:32.001Z,11.57
2023-04-05T06:27:17.529Z,9.60
2023-04-05T06:30:04.577Z,10.87
2023-04-05T06:32:54.520Z,9.07
2023-04-05T06:35:39.998Z,8.47
2023-04-05T06:38:25.595Z,16.67
2023-04-05T06:41:11.002Z,9.23
2023-04-05T06:43:56.770Z,9.93
2023-04-05T06:46:42.471Z,13.57
2023-04-05T06:49:27.886Z,13.67
2023-04-05T06:52:13.359Z,16.03
2023-04-05T06:54:59.001Z,10.50
2023-04-05T06:57:44.354Z,12.00
2023-04-05T07:00:29.656Z,10.63
2023-04-05T07:03:15.994Z,12.23
2023-04-05T07:06:01.870Z,8.30
2023-04-05T07:08:47.057Z,8.80
2023-04-05T07:11:33.018Z,9.10
2023-04-05T07:14:18.422Z,10.90
2023-04-05T07:17:06.455Z,10.67
2023-04-05T07:19:51.817Z,10.07
2023-04-05T07:22:37.598Z,11.83
2023-04-05T07:25:23.282Z,11.97
2023-04-05T07:28:09.054Z,8.90
2023-04-05T07:30:54.264Z,9.30
2023-04-05T07:33:39.852Z,9.93
2023-04-05T07:36:27.195Z,8.17
2023-04-05T07:39:12.562Z,8.13
2023-04-05T07:41:57.995Z,10.30
2023-04-05T07:44:43.276Z,9.40
2023-04-05T07:47:28.824Z,8.77
2023-04-05T07:50:15.585Z,10.37
2023-04-05T07:53:01.431Z,13.20
2023-04-05T07:55:47.340Z,7.83
2023-04-05T07:58:33.350Z,9.43
2023-04-05T08:01:19.994Z,9.63
2023-04-05T08:04:05.767Z,9.47
2023-04-05T08:06:51.223Z,9.30
2023-04-05T08:09:36.736Z,7.97
2023-04-05T08:12:21.904Z,10.07
2023-04-05T08:15:07.865Z,9.23
2023-04-05T08:17:53.597Z,10.90
2023-04-05T08:20:40.709Z,9.23
2023-04-05T08:23:27.098Z,14.03
2023-04-05T08:26:12.465Z,9.43
2023-04-05T08:28:57.989Z,9.67
2023-04-05T08:31:43.737Z,8.43
2023-04-05T08:34:28.974Z,10.07
2023-04-05T08:37:14.232Z,10.43
2023-04-05T08:39:59.911Z,8.93
2023-04-05T08:42:56.192Z,9.77
2023-04-05T08:45:49.399Z,8.40
2023-04-05T08:48:36.952Z,8.50
2023-04-05T08:51:24.883Z,7.67
2023-04-05T08:54:10.218Z,9.07
2023-04-05T08:56:59.700Z,8.33
2023-04-05T08:59:45.893Z,9.20
2023-04-05T09:02:32.768Z,7.60
2023-04-05T09:05:21.216Z,11.97
2023-04-05T09:08:07.355Z,8.40
2023-04-05T09:10:53.325Z,9.10
2023-04-05T09:13:38.952Z,11.90
2023-04-05T09:16:26.083Z,8.50
2023-04-05T09:19:11.808Z,8.38
2023-04-05T09:22:08.165Z,9.68
2023-04-05T09:24:53.806Z,8.60
2023-04-05T09:27:56.431Z,8.38
2023-04-05T09:30:46.503Z,9.00
2023-04-05T09:33:32.530Z,8.57
2023-04-05T09:36:19.526Z,8.23
2023-04-05T09:39:09.461Z,7.93
2023-04-05T09:42:05.955Z,8.32
2023-04-05T09:44:55.989Z,8.05
2023-04-05T09:47:42.217Z,7.32
2023-04-05T09:50:28.045Z,6.80
2023-04-05T09:53:16.604Z,7.80
2023-04-05T09:56:11.082Z,7.47
2023-04-05T09:59:04.718Z,8.88
2023-04-05T10:01:52.342Z,6.50
2023-04-05T10:04:42.847Z,9.02
2023-04-05T10:07:28.393Z,6.63
2023-04-05T10:10:16.198Z,7.82
2023-04-05T10:13:05.506Z,7.63
2023-04-05T10:15:57.293Z,7.30
2023-04-05T10:18:51.558Z,7.40
2023-04-05T10:21:43.208Z,6.18
2023-04-05T10:24:49.888Z,8.32
2023-04-05T10:27:47.285Z,6.82
2023-04-05T10:30:37.170Z,5.72
2023-04-05T10:33:26.903Z,7.45
2023-04-05T10:36:39.178Z,8.13
2023-04-05T10:39:41.169Z,7.05
2023-04-05T10:42:41.939Z,7.03
2023-04-05T10:45:28.685Z,5.30
2023-04-05T10:48:28.718Z,6.28
2023-04-05T10:51:16.167Z,6.70
2023-04-05T10:54:01.709Z,7.00
2023-04-05T10:56:48.345Z,9.73
2023-04-05T10:59:35.317Z,7.95
2023-04-05T11:02:21.438Z,6.75
2023-04-05T11:05:07.778Z,6.57
2023-04-05T11:07:56.484Z,8.48
2023-04-05T11:10:42.163Z,7.70
2023-04-05T11:13:52.008Z,5.00
2023-04-05T11:16:41.256Z,7.40
2023-04-05T11:19:52.414Z,6.03
2023-04-05T11:22:38.013Z,5.63
2023-04-05T11:25:25.226Z,5.70
2023-04-05T11:28:37.389Z,7.65
2023-04-05T11:31:26.912Z,5.03
2023-04-05T11:34:12.335Z,7.95
2023-04-05T11:36:57.833Z,6.75
2023-04-05T11:39:43.237Z,5.35
2023-04-05T11:42:28.984Z,6.50
2023-04-05T11:45:14.541Z,5.95
2023-04-05T11:48:09.058Z,4.95
2023-04-05T11:50:54.656Z,5.53
2023-04-05T11:53:40.446Z,4.85
2023-04-05T11:56:25.858Z,6.53
2023-04-05T11:59:14.637Z,4.47
2023-04-05T12:02:06.501Z,4.88
2023-04-05T12:04:57.545Z,5.55
2023-04-05T12:07:43.094Z,4.60
2023-04-05T12:10:28.839Z,7.10
2023-04-05T12:13:14.373Z,5.88
2023-04-05T12:16:07.993Z,4.78
2023-04-05T12:18:59.189Z,5.05
2023-04-05T12:21:44.737Z,4.50
2023-04-05T12:24:30.472Z,6.25
2023-04-05T12:27:15.812Z,7.40
2023-04-05T12:30:15.161Z,6.07
2023-04-05T12:33:08.479Z,5.55
2023-04-05T12:35:54.744Z,5.78
2023-04-05T12:38:40.600Z,5.65
2023-04-05T12:41:30.361Z,5.00
2023-04-05T12:44:16.648Z,5.25
2023-04-05T12:47:03.084Z,3.72
2023-04-05T12:49:48.431Z,4.60
2023-04-05T12:52:34.185Z,3.92
2023-04-05T12:55:21.371Z,4.25
2023-04-05T12:58:07.025Z,5.05
2023-04-05T13:00:52.316Z,4.35
2023-04-05T13:03:38.143Z,3.65
2023-04-05T13:06:23.601Z,3.65
2023-04-05T13:09:09.213Z,4.63
2023-04-05T13:11:54.589Z,3.90
2023-04-05T13:14:40.418Z,4.00
2023-04-05T13:17:25.994Z,4.53
2023-04-05T13:20:12.319Z,4.72
2023-04-05T13:22:58.146Z,3.50
2023-04-05T13:25:45.588Z,4.15
2023-04-05T13:28:30.986Z,3.05
2023-04-05T13:31:16.352Z,3.63
2023-04-05T13:34:01.873Z,4.95
2023-04-05T13:36:49.111Z,4.35
2023-04-05T13:39:34.770Z,5.35
2023-04-05T13:42:20.721Z,3.45
2023-04-05T13:45:06.634Z,4.05
2023-04-05T13:47:52.130Z,3.78
2023-04-05T13:50:37.385Z,3.28
2023-04-05T13:53:23.187Z,4.45
2023-04-05T13:56:08.491Z,3.88
2023-04-05T13:58:54.200Z,5.50
2023-04-05T14:01:39.826Z,4.82
2023-04-05T14:04:25.333Z,3.83
2023-04-05T14:07:10.736Z,6.05
2023-04-05T14:09:56.440Z,4.68
2023-04-05T14:12:42.003Z,4.53
2023-04-05T14:15:27.797Z,3.60
2023-04-05T14:18:13.084Z,3.38
2023-04-05T14:20:59.106Z,5.38
2023-04-05T14:23:44.869Z,3.20
2023-04-05T14:26:30.268Z,3.90
2023-04-05T14:29:19.227Z,3.10
2023-04-05T14:32:05.247Z,4.43
2023-04-05T14:34:50.888Z,4.55
2023-04-05T14:37:36.555Z,4.40
2023-04-05T14:40:21.914Z,4.00
2023-04-05T14:43:07.674Z,4.30
2023-04-05T14:45:53.152Z,4.03
2023-04-05T14:48:38.514Z,5.10
2023-04-05T14:51:24.053Z,3.28
2023-04-05T14:54:09.606Z,3.80
2023-04-05T14:56:55.321Z,3.78
2023-04-05T14:59:40.849Z,3.67
2023-04-05T15:02:26.852Z,3.65
2023-04-05T15:05:12.153Z,4.78
2023-04-05T15:07:57.679Z,4.68
2023-04-05T15:10:43.626Z,2.97
2023-04-05T15:13:29.276Z,2.53
2023-04-05T15:16:14.654Z,3.05
2023-04-05T15:18:59.966Z,3.08
2023-04-05T15:21:45.999Z,3.42
2023-04-05T15:24:31.221Z,2.28
2023-04-05T15:27:16.546Z,1.83
2023-04-05T15:30:03.823Z,3.30
2023-04-05T15:32:49.752Z,1.58
2023-04-05T15:35:36.812Z,2.22
2023-04-05T15:38:22.117Z,2.22
2023-04-05T15:41:08.770Z,3.28
2023-04-05T15:43:54.230Z,2.30
2023-04-05T15:46:40.411Z,3.08
2023-04-05T15:49:26.151Z,2.47
2023-04-05T15:52:12.137Z,3.28
2023-04-05T15:54:57.748Z,2.63
2023-04-05T15:57:43.495Z,4.28
2023-04-05T16:00:29.095Z,4.85
2023-04-05T16:03:14.703Z,4.57
2023-04-05T16:06:00.350Z,3.75
2023-04-05T16:08:45.490Z,3.20
2023-04-05T16:11:31.370Z,3.88
2023-04-05T16:14:17.253Z,3.72
2023-04-05T16:17:02.813Z,4.20
2023-04-05T16:19:48.329Z,4.60
2023-04-05T16:22:33.869Z,6.18
2023-04-05T16:25:19.389Z,5.30
2023-04-05T16:28:06.649Z,4.43
2023-04-05T16:30:52.422Z,6.03
2023-04-05T16:33:37.811Z,4.65
2023-04-05T16:36:23.196Z,4.95
2023-04-05T16:39:08.913Z,4.50
2023-04-05T16:41:54.831Z,5.30
2023-04-05T16:44:40.672Z,3.55
2023-04-05T16:47:26.363Z,6.45
2023-04-05T16:50:12.105Z,5.85
2023-04-05T16:52:57.628Z,4.78
2023-04-05T16:55:42.986Z,4.82
2023-04-05T16:58:28.409Z,6.82
2023-04-05T17:01:14.067Z,4.40
2023-04-05T17:04:00.137Z,5.07
2023-04-05T17:06:45.399Z,4.65
2023-04-05T17:09:32.247Z,4.70
2023-04-05T17:12:17.662Z,5.82
2023-04-05T17:15:03.467Z,4.43
2023-04-05T17:17:49.094Z,7.25
2023-04-05T17:20:34.870Z,4.32
2023-04-05T17:23:20.043Z,5.30
2023-04-05T17:26:05.984Z,4.60
2023-04-05T17:28:51.361Z,4.90
2023-04-05T17:31:36.866Z,7.10
2023-04-05T17:34:22.524Z,8.02
2023-04-05T17:37:08.075Z,5.80
2023-04-05T17:39:53.630Z,5.03
2023-04-05T17:42:39.086Z,3.42
2023-04-05T17:45:24.667Z,5.28
2023-04-05T17:48:10.492Z,4.72
2023-04-05T17:50:56.707Z,5.90
2023-04-05T17:53:42.416Z,4.68
2023-04-05T17:56:27.715Z,5.85
2023-04-05T17:59:13.373Z,6.93
2023-04-05T18:01:58.934Z,5.28
2023-04-05T18:04:44.457Z,5.80
2023-04-05T18:07:29.804Z,8.23
2023-04-05T18:10:15.547Z,7.25
2023-04-05T18:13:03.348Z,9.70
2023-04-05T18:15:58.025Z,9.68
2023-04-05T18:18:43.359Z,8.30
2023-04-05T18:21:28.871Z,8.60
2023-04-05T18:24:14.604Z,8.75
2023-04-05T18:27:00.265Z,6.60
2023-04-05T18:29:46.852Z,6.50
2023-04-05T18:32:32.323Z,7.55
2023-04-05T18:35:18.022Z,7.03
2023-04-05T18:38:04.703Z,11.13
2023-04-05T18:40:50.110Z,6.35
2023-04-05T18:43:35.793Z,6.57
2023-04-05T18:46:23.206Z,6.45
2023-04-05T18:49:09.289Z,5.72
2023-04-05T18:51:56.007Z,9.10
2023-04-05T18:54:41.437Z,7.80
2023-04-05T18:57:27.705Z,5.05
2023-04-05T19:00:13.630Z,6.03
2023-04-05T19:02:59.749Z,6.32
2023-04-05T19:05:53.323Z,5.88
2023-04-05T19:08:39.185Z,6.80
2023-04-05T19:11:25.004Z,6.90
2023-04-05T19:14:10.531Z,7.95
2023-04-05T19:16:56.277Z,7.18
2023-04-05T19:19:42.534Z,8.30
2023-04-05T19:22:27.942Z,7.53
2023-04-05T19:25:13.558Z,9.80
2023-04-05T19:27:59.329Z,8.18
2023-04-05T19:30:46.018Z,6.22
2023-04-05T19:33:31.806Z,6.95
2023-04-05T19:36:17.284Z,8.47
2023-04-05T19:39:04.124Z,6.90
2023-04-05T19:41:49.400Z,8.43
2023-04-05T19:44:55.421Z,8.30
2023-04-05T19:47:45.789Z,9.03
2023-04-05T19:50:48.924Z,8.47
2023-04-05T19:53:48.259Z,6.93
2023-04-05T19:56:37.211Z,7.37
2023-04-05T19:59:28.327Z,7.77
2023-04-05T20:02:36.832Z,7.47
2023-04-05T20:05:42.441Z,7.67
2023-04-05T20:08:29.148Z,6.50
2023-04-05T20:11:20.758Z,8.00
2023-04-05T20:14:08.748Z,7.97
2023-04-05T20:16:56.066Z,7.03
2023-04-05T20:19:56.663Z,6.40
2023-04-05T20:22:42.049Z,6.37
2023-04-05T20:25:43.871Z,7.30
2023-04-05T20:28:32.766Z,7.40
2023-04-05T20:31:22.208Z,6.70
2023-04-05T20:34:10.308Z,9.20
2023-04-05T20:36:59.787Z,5.73
2023-04-05T20:39:45.484Z,8.27
2023-04-05T20:42:32.574Z,8.27
2023-04-05T20:45:18.577Z,7.90
2023-04-05T20:48:04.507Z,7.63
2023-04-05T20:50:49.652Z,6.73
2023-04-05T20:53:36.529Z,8.30
2023-04-05T20:56:21.818Z,6.77
2023-04-05T20:59:07.552Z,9.37
2023-04-05T21:01:53.624Z,7.37
2023-04-05T21:04:40.152Z,8.27
2023-04-05T21:07:25.900Z,7.20
2023-04-05T21:10:11.290Z,7.40
2023-04-05T21:12:57.150Z,8.60
2023-04-05T21:15:42.960Z,6.70
2023-04-05T21:18:28.441Z,7.73
2023-04-05T21:21:14.032Z,7.20
2023-04-05T21:23:59.472Z,7.77
2023-04-05T21:26:45.055Z,5.53
2023-04-05T21:29:31.022Z,7.20
2023-04-05T21:32:16.787Z,9.00
2023-04-05T21:35:02.273Z,7.03
2023-04-05T21:37:47.908Z,8.23
2023-04-05T21:40:33.530Z,7.17
2023-04-05T21:43:18.915Z,9.33
2023-04-05T21:46:04.151Z,7.57
2023-04-05T21:48:49.521Z,10.07
2023-04-05T21:51:35.007Z,6.43
2023-04-05T21:54:20.377Z,9.53
2023-04-05T21:57:06.045Z,8.03
2023-04-05T21:59:51.445Z,7.47
2023-04-05T22:02:38.578Z,9.23
2023-04-05T22:05:36.285Z,10.50
2023-04-05T22:08:24.896Z,10.47
2023-04-05T22:11:10.681Z,9.93
2023-04-05T22:13:56.450Z,8.87
2023-04-05T22:16:42.636Z,9.13
2023-04-05T22:19:28.516Z,7.63
2023-04-05T22:22:15.100Z,8.53
2023-04-05T22:25:00.747Z,10.43
2023-04-05T22:27:46.288Z,10.53
2023-04-05T22:30:42.899Z,9.43
2023-04-05T22:33:29.392Z,8.63
2023-04-05T22:36:14.861Z,9.27
2023-04-05T22:39:00.179Z,9.23
2023-04-05T22:41:46.060Z,9.20
2023-04-05T22:44:31.955Z,10.47
2023-04-05T22:47:17.392Z,11.23
2023-04-05T22:50:03.046Z,10.13
2023-04-05T22:52:48.288Z,9.33
2023-04-05T22:55:33.858Z,8.77
2023-04-05T22:58:21.905Z,7.93
2023-04-05T23:01:08.049Z,10.70
2023-04-05T23:03:53.764Z,9.87
2023-04-05T23:06:39.269Z,10.07
2023-04-05T23:09:24.795Z,10.43
2023-04-05T23:12:11.144Z,10.97
2023-04-05T23:14:58.372Z,12.33
2023-04-05T23:17:43.908Z,10.57
2023-04-05T23:20:29.585Z,12.00
2023-04-05T23:23:15.670Z,11.90
2023-04-05T23:26:01.003Z,12.47
2023-04-05T23:28:46.551Z,10.53
2023-04-05T23:31:32.212Z,14.20
2023-04-05T23:34:17.631Z,13.33
2023-04-05T23:37:03.153Z,9.43
2023-04-05T23:39:48.604Z,11.17
2023-04-05T23:42:33.853Z,11.30
2023-04-05T23:45:19.275Z,9.27
2023-04-05T23:48:05.152Z,12.93
2023-04-05T23:50:50.508Z,12.47
2023-04-05T23:53:36.541Z,9.60
2023-04-05T23:56:22.187Z,10.17
2023-04-05T23:59:08.133Z,11.40
